CW7508 Weather Reports


Display with metric or nautical units.
time (UTC)temp
F
wind
direction
speed
MPH
gust
MPH
rain 1hr
in
rain 24hr
in
rain mn
in
humidity
%
barometer
mb
20191018131602 37 105 3.0 6.0 0.00 0.18 0.03 89 1007.4
20191018130144 38 208 0.0 4.0 0.01 0.18 0.03 88 1007.4
20191018124624 39 278 0.0 3.0 0.01 0.19 0.03 88 1007.1
20191018123058 40 281 0.0 3.0 0.02 0.19 0.03 88 1007.3
20191018121530 40 281 0.0 2.0 0.02 0.19 0.03 87 1007.3
20191018120211 40 283 2.0 5.0 0.01 0.18 0.02 86 1007.3
20191018114607 40 279 0.0 11.0 0.01 0.18 0.02 86 1007.2
20191018113027 41 333 4.0 11.0 0.00 0.17 0.01 85 1006.8
20191018111542 40 320 4.0 9.0 0.00 0.17 0.01 85 1006.6
20191018110030 41 355 3.0 12.0 0.01 0.17 0.01 82 1006.5
20191018104546 43 225 0.0 3.0 0.01 0.17 0.01 74 1006.4
20191018103030 43 261 8.0 15.0 0.01 0.17 0.01 73 1005.7
20191018101537 42 293 6.0 20.0 0.01 0.17 0.01 76 1005.7
20191018100009 41 113 1.0 4.0 0.00 0.16 0.00 81 1005.2
20191018094511 41 118 0.0 4.0 0.00 0.16 0.00 81 1005.1
20191018093024 41 131 1.0 4.0 0.00 0.16 0.00 80 1005.1
20191018091510 41 180 1.0 3.0 0.00 0.16 0.00 79 1005.1
20191018090001 41 97 0.0 6.0 0.00 0.16 0.00 82 1005.1
20191018084647 40 131 3.0 8.0 0.00 0.16 0.00 83 1005.4
20191018083132 39 89 2.0 6.0 0.00 0.16 0.00 85 1005.4
20191018081632 39 124 0.0 0.0 0.00 0.16 0.00 85 1005.7
20191018080326 39 124 1.0 3.0 0.00 0.16 0.00 84 1005.0
20191018074648 40 122 0.0 3.0 0.00 0.16 0.00 84 1005.1
20191018073253 40 122 0.0 3.0 0.00 0.16 0.00 84 1005.2
20191018071707 40 132 0.0 6.0 0.00 0.16 0.00 85 1005.1
20191018070107 39 174 0.0 3.0 0.00 0.16 0.00 85 1004.9
20191018064554 39 114 1.0 3.0 0.00 0.16 0.16 85 1004.7
20191018063108 39 114 3.0 8.0 0.00 0.16 0.16 86 1004.7
20191018061620 39 104 3.0 5.0 0.00 0.16 0.16 86 1004.8
20191018054623 40 149 1.0 5.0 0.00 0.16 0.16 86 1004.9
20191018053111 40 107 1.0 3.0 0.00 0.16 0.16 85 1004.8
20191018051553 40 274 0.0 5.0 0.00 0.16 0.16 84 1004.4
20191018050059 41 323 1.0 3.0 0.00 0.16 0.16 84 1004.5
20191018044553 41 323 0.0 3.0 0.00 0.16 0.16 83 1004.7
20191018043108 42 323 0.0 3.0 0.00 0.16 0.16 81 1004.7
20191018041610 43 323 1.0 4.0 0.00 0.16 0.16 79 1004.5
20191018040036 43 324 0.0 1.0 0.00 0.16 0.16 78 1004.2
20191018034606 43 1 0.0 2.0 0.00 0.16 0.16 76 1004.3
20191018033044 43 11 0.0 3.0 0.00 0.16 0.16 76 1004.1
20191018031523 44 91 2.0 4.0 0.00 0.16 0.16 79 1004.3
20191018030053 44 123 0.0 4.0 0.00 0.16 0.16 79 1003.9
20191018024538 43 127 2.0 4.0 0.00 0.16 0.16 80 1004.0
20191018023041 43 129 0.0 2.0 0.00 0.16 0.16 78 1003.9
20191018021521 44 113 4.0 9.0 0.00 0.16 0.16 77 1003.3
20191018020045 45 97 2.0 7.0 0.00 0.16 0.16 73 1003.6
20191018014515 46 84 2.0 4.0 0.00 0.16 0.16 69 1003.7
20191018013046 47 84 0.0 1.0 0.00 0.16 0.16 63 1003.6
20191018011520 48 84 0.0 7.0 0.00 0.16 0.16 60 1003.6
20191018010037 48 294 0.0 3.0 0.00 0.16 0.16 60 1003.6
20191018004512 49 294 1.0 4.0 0.00 0.16 0.16 58 1003.3
20191018003028 49 292 1.0 4.0 0.00 0.16 0.16 56 1003.2
20191018001532 50 289 3.0 7.0 0.00 0.16 0.16 53 1002.9
20191018000026 50 291 3.0 6.0 0.00 0.16 0.16 52 1002.7
20191017234517 50 305 3.0 8.0 0.00 0.16 0.16 54 1002.9
20191017233005 50 273 5.0 9.0 0.00 0.16 0.16 52 1002.8
20191017231505 51 301 2.0 8.0 0.00 0.16 0.16 52 1002.6
20191017230011 50 293 4.0 6.0 0.00 0.16 0.16 51 1002.4
20191017223138 50 269 3.0 11.0 0.00 0.16 0.16 54 1002.2
20191017221643 50 285 2.0 7.0 0.00 0.16 0.16 54 1002.1
20191017220131 50 308 3.0 7.0 0.00 0.16 0.16 53 1001.9
20191017214702 51 283 2.0 7.0 0.00 0.16 0.16 53 1001.8
20191017213126 50 287 1.0 11.0 0.00 0.16 0.16 52 1001.8
20191017211646 51 210 2.0 8.0 0.00 0.16 0.16 56 1001.9
20191017210205 50 250 1.0 7.0 0.00 0.16 0.16 66 1002.0
20191017204656 49 193 0.0 6.0 0.00 0.16 0.16 70 1001.9
20191017203200 48 128 2.0 7.0 0.00 0.16 0.16 73 1001.9
20191017201640 47 115 2.0 7.0 0.00 0.16 0.16 77 1002.0
20191017200113 46 153 2.0 5.0 0.00 0.16 0.16 84 1002.0
20191017194623 45 156 0.0 4.0 0.00 0.16 0.16 86 1002.0
20191017193135 44 156 0.0 4.0 0.01 0.16 0.16 90 1001.9
20191017191755 43 154 1.0 3.0 0.01 0.16 0.16 91 1001.8
20191017190108 42 154 0.0 4.0 0.01 0.16 0.16 91 1001.8
20191017184619 42 271 1.0 4.0 0.01 0.16 0.16 91 1001.6
20191017183114 42 276 0.0 5.0 0.00 0.15 0.15 91 1001.6
20191017181615 42 326 0.0 0.0 0.00 0.15 0.15 91 1001.5
20191017180048 42 328 0.0 0.0 0.00 0.15 0.15 91 1001.4
20191017174601 42 348 0.0 0.0 0.00 0.15 0.15 92 1001.2
20191017173141 42 65 0.0 0.0 0.00 0.15 0.15 91 1001.0
20191017171550 42 72 0.0 0.0 0.00 0.15 0.15 92 1001.0
20191017170108 42 72 0.0 0.0 0.01 0.15 0.15 92 1000.8
20191017164531 42 72 0.0 0.0 0.01 0.15 0.15 92 1000.7
20191017163055 42 72 0.0 0.0 0.01 0.15 0.15 92 1000.7
20191017161551 41 72 0.0 0.0 0.01 0.15 0.15 92 1000.7
20191017160038 41 72 0.0 0.0 0.00 0.14 0.14 92 1000.6
20191017154531 0 0.0 0.0 0.00 0.14 0.14 1000.4
20191017153018 0 0.0 0.0 0.00 0.14 0.14 1000.3
20191017151510 0 0.0 0.0 0.00 0.14 0.14 1000.3
20191017150010 0 0.0 0.0 0.02 0.14 0.14 1000.3
20191017144501 0 0.0 0.0 0.03 0.14 0.14 1000.3
20191017143158 0 0.0 0.0 0.05 0.14 0.14 1000.4
20191017141711 41 1 1.0 5.0 0.08 0.14 0.14 89 1000.6
20191017140153 42 8 2.0 4.0 0.11 0.12 0.12 89 1000.8
20191017134610 42 352 2.0 6.0 0.11 0.11 0.11 88 1000.7
20191017133156 42 359 4.0 8.0 0.09 0.09 0.09 88 1000.7
20191017131718 42 319 4.0 8.0 0.06 0.06 0.06 87 1000.5